createdAt,value
2022-12-31T00:01:36.353Z,96294.50
2022-12-31T00:03:36.323Z,96295.22
2022-12-31T00:05:35.151Z,96294.06
2022-12-31T00:09:33.236Z,96297.56
2022-12-31T00:11:33.258Z,96289.38
2022-12-31T00:13:31.506Z,96284.88
2022-12-31T00:15:30.083Z,96289.94
2022-12-31T00:17:28.394Z,96285.63
2022-12-31T00:19:26.670Z,96287.31
2022-12-31T00:21:24.731Z,96293.72
2022-12-31T00:23:23.233Z,96296.41
2022-12-31T00:25:21.509Z,96298.34
2022-12-31T00:27:22.374Z,96294.97
2022-12-31T00:29:20.612Z,96295.84
2022-12-31T00:31:20.822Z,96299.59
2022-12-31T00:33:19.086Z,96303.16
2022-12-31T00:35:17.231Z,96309.50
2022-12-31T00:37:15.562Z,96308.50
2022-12-31T00:39:13.773Z,96316.88
2022-12-31T00:41:12.467Z,96323.66
2022-12-31T00:43:12.202Z,96328.03
2022-12-31T00:45:11.144Z,96328.16
2022-12-31T00:47:09.361Z,96328.09
2022-12-31T00:49:07.665Z,96331.59
2022-12-31T00:51:08.441Z,96340.28
2022-12-31T00:53:06.637Z,96330.69
2022-12-31T00:55:06.100Z,96327.19
2022-12-31T00:57:04.396Z,96342.81
2022-12-31T00:59:04.056Z,96338.69
2022-12-31T01:01:09.917Z,96345.78
2022-12-31T01:03:09.034Z,96343.66
2022-12-31T01:05:08.886Z,96351.97
2022-12-31T01:07:07.043Z,96341.03
2022-12-31T01:09:06.552Z,96347.34
2022-12-31T01:11:19.621Z,96342.78
2022-12-31T01:13:18.007Z,96346.16
2022-12-31T01:15:17.847Z,96351.56
2022-12-31T01:17:17.304Z,96350.22
2022-12-31T01:19:17.632Z,96348.84
2022-12-31T01:21:17.008Z,96356.78
2022-12-31T01:23:15.342Z,96357.63
2022-12-31T01:25:13.520Z,96353.53
2022-12-31T01:27:11.783Z,96356.38
2022-12-31T01:29:11.101Z,96347.19
2022-12-31T01:31:12.581Z,96358.59
2022-12-31T01:33:10.875Z,96352.88
2022-12-31T01:35:09.867Z,96347.91
2022-12-31T01:37:08.113Z,96354.81
2022-12-31T01:39:08.031Z,96358.38
2022-12-31T01:41:06.475Z,96356.78
2022-12-31T01:43:04.846Z,96357.81
2022-12-31T01:45:03.421Z,96359.72
2022-12-31T01:47:05.286Z,96365.13
2022-12-31T01:49:10.308Z,96353.25
2022-12-31T01:51:10.904Z,96361.06
2022-12-31T01:53:12.113Z,96359.25
2022-12-31T01:55:16.177Z,96362.69
2022-12-31T01:57:15.184Z,96361.06
2022-12-31T01:59:17.552Z,96367.25
2022-12-31T02:01:21.683Z,96369.00
2022-12-31T02:03:22.820Z,96367.16
2022-12-31T02:05:27.334Z,96366.41
2022-12-31T02:07:25.917Z,96371.72
2022-12-31T02:09:24.365Z,96369.19
2022-12-31T02:11:26.196Z,96373.47
2022-12-31T02:13:24.669Z,96369.28
2022-12-31T02:15:30.994Z,96371.88
2022-12-31T02:17:36.711Z,96375.41
2022-12-31T02:20:01.387Z,96368.25
2022-12-31T02:22:04.691Z,96377.63
2022-12-31T02:24:33.578Z,96371.50
2022-12-31T02:26:55.881Z,96371.34
2022-12-31T02:29:23.141Z,96376.50
2022-12-31T02:31:27.770Z,96372.91
2022-12-31T02:33:33.375Z,96377.22
2022-12-31T02:35:35.020Z,96383.06
2022-12-31T02:37:35.616Z,96378.59
2022-12-31T02:39:35.337Z,96369.78
2022-12-31T02:41:51.769Z,96383.50
2022-12-31T02:43:49.889Z,96383.22
2022-12-31T02:45:53.393Z,96390.63
2022-12-31T02:48:05.059Z,96385.56
2022-12-31T02:50:34.354Z,96390.19
2022-12-31T02:52:45.430Z,96389.13
2022-12-31T02:54:50.530Z,96399.50
2022-12-31T02:56:59.368Z,96395.16
2022-12-31T02:59:21.798Z,96389.63
2022-12-31T03:01:44.032Z,96392.72
2022-12-31T03:03:44.187Z,96394.84
2022-12-31T03:05:45.279Z,96383.13
2022-12-31T03:07:44.994Z,96376.44
2022-12-31T03:09:43.294Z,96378.41
2022-12-31T03:11:59.364Z,96381.19
2022-12-31T03:13:57.543Z,96378.84
2022-12-31T03:15:55.939Z,96376.38
2022-12-31T03:17:57.812Z,96375.75
2022-12-31T03:20:15.147Z,96375.22
2022-12-31T03:22:28.671Z,96377.25
2022-12-31T03:24:44.211Z,96375.69
2022-12-31T03:26:42.602Z,96384.50
2022-12-31T03:28:42.631Z,96382.81
2022-12-31T03:30:43.284Z,96386.25
2022-12-31T03:32:41.836Z,96383.72
2022-12-31T03:34:40.168Z,96381.38
2022-12-31T03:36:40.017Z,96378.94
2022-12-31T03:38:38.800Z,96379.88
2022-12-31T03:40:39.958Z,96389.66
2022-12-31T03:42:38.516Z,96382.78
2022-12-31T03:44:36.809Z,96388.91
2022-12-31T03:46:35.028Z,96388.16
2022-12-31T03:48:33.372Z,96390.84
2022-12-31T03:50:31.813Z,96391.78
2022-12-31T03:52:31.369Z,96396.91
2022-12-31T03:54:29.832Z,96392.63
2022-12-31T03:56:27.887Z,96406.66
2022-12-31T03:58:26.171Z,96398.97
2022-12-31T04:00:24.398Z,96407.69
2022-12-31T04:02:28.582Z,96404.25
2022-12-31T04:04:27.660Z,96408.59
2022-12-31T04:06:26.538Z,96410.44
2022-12-31T04:08:26.489Z,96404.44
2022-12-31T04:10:24.637Z,96405.44
2022-12-31T04:12:22.972Z,96415.06
2022-12-31T04:14:21.258Z,96404.19
2022-12-31T04:16:19.468Z,96406.13
2022-12-31T04:18:17.660Z,96404.47
2022-12-31T04:20:16.594Z,96411.38
2022-12-31T04:22:14.819Z,96405.28
2022-12-31T04:24:14.499Z,96407.97
2022-12-31T04:26:12.635Z,96407.97
2022-12-31T04:28:11.032Z,96405.44
2022-12-31T04:30:10.422Z,96407.25
2022-12-31T04:32:09.532Z,96416.66
2022-12-31T04:34:07.824Z,96422.75
2022-12-31T04:36:07.819Z,96425.25
2022-12-31T04:38:06.741Z,96424.44
2022-12-31T04:40:07.638Z,96426.16
2022-12-31T04:42:05.848Z,96426.34
2022-12-31T04:44:04.286Z,96428.00
2022-12-31T04:46:02.480Z,96426.94
2022-12-31T04:48:00.649Z,96431.25
2022-12-31T04:49:58.845Z,96432.97
2022-12-31T04:51:56.985Z,96429.50
2022-12-31T04:53:55.202Z,96431.38
2022-12-31T04:55:54.855Z,96429.00
2022-12-31T04:57:53.017Z,96431.69
2022-12-31T04:59:51.270Z,96429.78
2022-12-31T05:01:49.668Z,96436.88
2022-12-31T05:03:48.123Z,96436.94
2022-12-31T05:05:46.465Z,96439.69
2022-12-31T05:07:44.622Z,96445.81
2022-12-31T05:09:44.677Z,96445.97
2022-12-31T05:11:44.301Z,96447.84
2022-12-31T05:13:44.254Z,96454.72
2022-12-31T05:15:43.094Z,96450.38
2022-12-31T05:17:41.389Z,96457.41
2022-12-31T05:19:39.655Z,96460.91
2022-12-31T05:21:37.841Z,96462.59
2022-12-31T05:23:35.917Z,96469.53
2022-12-31T05:25:34.532Z,96466.09
2022-12-31T05:27:34.064Z,96471.19
2022-12-31T05:29:32.401Z,96471.97
2022-12-31T05:31:30.660Z,96475.47
2022-12-31T05:33:28.846Z,96477.28
2022-12-31T05:35:27.102Z,96474.84
2022-12-31T05:37:25.413Z,96479.13
2022-12-31T05:39:23.529Z,96482.63
2022-12-31T05:41:22.826Z,96484.28
2022-12-31T05:43:22.487Z,96477.28
2022-12-31T05:45:25.251Z,96480.72
2022-12-31T05:47:27.115Z,96487.75
2022-12-31T05:49:25.481Z,96484.06
2022-12-31T05:51:23.670Z,96484.81
2022-12-31T05:53:22.009Z,96486.66
2022-12-31T05:55:20.327Z,96489.16
2022-12-31T05:57:18.573Z,96490.94
2022-12-31T05:59:18.068Z,96491.09
2022-12-31T06:01:16.372Z,96492.00
2022-12-31T06:03:14.777Z,96500.59
2022-12-31T06:05:13.049Z,96495.44
2022-12-31T06:07:11.262Z,96493.75
2022-12-31T06:09:09.420Z,96491.22
2022-12-31T06:11:07.674Z,96495.44
2022-12-31T06:13:05.924Z,96495.19
2022-12-31T06:15:07.280Z,96493.28
2022-12-31T06:17:05.495Z,96497.03
2022-12-31T06:19:03.991Z,96503.00
2022-12-31T06:21:02.454Z,96504.69
2022-12-31T06:23:01.177Z,96509.34
2022-12-31T06:24:59.411Z,96509.59
2022-12-31T06:26:57.779Z,96505.00
2022-12-31T06:28:55.927Z,96512.63
2022-12-31T06:31:00.727Z,96527.16
2022-12-31T06:32:58.939Z,96519.22
2022-12-31T06:34:57.021Z,96524.66
2022-12-31T06:36:55.297Z,96528.19
2022-12-31T06:38:53.544Z,96525.75
2022-12-31T06:40:51.911Z,96533.72
2022-12-31T06:42:54.626Z,96539.84
2022-12-31T06:44:55.936Z,96534.75
2022-12-31T06:46:55.703Z,96537.97
2022-12-31T06:48:54.031Z,96539.69
2022-12-31T06:50:52.336Z,96539.59
2022-12-31T06:52:50.406Z,96545.56
2022-12-31T06:54:49.410Z,96544.56
2022-12-31T06:56:48.215Z,96542.50
2022-12-31T06:58:47.214Z,96555.22
2022-12-31T07:00:55.091Z,96555.00
2022-12-31T07:03:10.923Z,96554.72
2022-12-31T07:05:20.864Z,96552.78
2022-12-31T07:07:27.351Z,96552.50
2022-12-31T07:09:34.393Z,96547.69
2022-12-31T07:11:40.535Z,96564.19
2022-12-31T07:14:08.650Z,96559.72
2022-12-31T07:16:21.692Z,96567.13
2022-12-31T07:18:31.540Z,96572.88
2022-12-31T07:20:31.189Z,96573.34
2022-12-31T07:22:30.024Z,96573.94
2022-12-31T07:24:29.247Z,96570.31
2022-12-31T07:26:43.851Z,96569.53
2022-12-31T07:28:54.767Z,96574.94
2022-12-31T07:31:02.906Z,96575.13
2022-12-31T07:33:22.069Z,96576.41
2022-12-31T07:35:35.325Z,96581.88
2022-12-31T07:37:44.856Z,96577.38
2022-12-31T07:39:55.532Z,96579.38
2022-12-31T07:42:00.865Z,96580.28
2022-12-31T07:44:08.527Z,96587.88
2022-12-31T07:46:14.416Z,96586.00
2022-12-31T07:48:23.526Z,96587.81
2022-12-31T07:50:23.727Z,96583.94
2022-12-31T07:52:22.835Z,96581.50
2022-12-31T07:54:21.273Z,96589.41
2022-12-31T07:56:19.544Z,96592.84
2022-12-31T07:58:23.067Z,96589.72
2022-12-31T08:00:22.011Z,96591.38
2022-12-31T08:02:35.322Z,96592.41
2022-12-31T08:04:43.732Z,96591.94
2022-12-31T08:06:51.841Z,96587.34
2022-12-31T08:09:00.215Z,96599.06
2022-12-31T08:11:09.994Z,96597.25
2022-12-31T08:13:12.263Z,96591.84
2022-12-31T08:15:15.535Z,96591.13
2022-12-31T08:17:15.439Z,96587.00
2022-12-31T08:19:25.963Z,96582.34
2022-12-31T08:21:37.105Z,96588.59
2022-12-31T08:23:43.825Z,96589.78
2022-12-31T08:26:00.588Z,96583.84
2022-12-31T08:28:09.075Z,96594.00
2022-12-31T08:30:11.309Z,96587.91
2022-12-31T08:32:17.241Z,96591.16
2022-12-31T08:34:24.193Z,96597.06
2022-12-31T08:36:29.713Z,96599.00
2022-12-31T08:38:34.931Z,96596.53
2022-12-31T08:40:44.982Z,96601.97
2022-12-31T08:42:52.709Z,96608.38
2022-12-31T08:45:01.787Z,96593.56
2022-12-31T08:47:10.395Z,96598.44
2022-12-31T08:49:10.925Z,96583.41
2022-12-31T08:51:15.675Z,96578.63
2022-12-31T08:53:14.238Z,96565.59
2022-12-31T08:55:16.373Z,96560.09
2022-12-31T08:57:33.720Z,96550.50
2022-12-31T08:59:47.035Z,96561.94
2022-12-31T09:02:02.337Z,96555.13
2022-12-31T09:04:12.759Z,96551.25
2022-12-31T09:06:20.375Z,96549.69
2022-12-31T09:08:26.021Z,96547.00
2022-12-31T09:10:30.024Z,96547.53
2022-12-31T09:12:39.217Z,96543.50
2022-12-31T09:14:48.300Z,96544.28
2022-12-31T09:16:57.308Z,96545.28
2022-12-31T09:18:55.543Z,96549.47
2022-12-31T09:20:59.057Z,96555.00
2022-12-31T09:22:58.512Z,96543.28
2022-12-31T09:24:57.241Z,96542.88
2022-12-31T09:27:05.945Z,96540.19
2022-12-31T09:29:11.562Z,96536.56
2022-12-31T09:31:14.747Z,96539.19
2022-12-31T09:33:17.942Z,96533.28
2022-12-31T09:35:23.816Z,96533.22
2022-12-31T09:37:30.302Z,96517.44
2022-12-31T09:39:38.342Z,96512.00
2022-12-31T09:42:05.832Z,96498.47
2022-12-31T09:45:00.151Z,96496.97
2022-12-31T09:47:39.114Z,96495.50
2022-12-31T09:50:13.933Z,96501.47
2022-12-31T09:52:22.359Z,96501.13
2022-12-31T09:54:34.904Z,96500.00
2022-12-31T09:56:37.585Z,96493.41
2022-12-31T09:58:46.002Z,96490.00
2022-12-31T10:00:52.860Z,96491.28
2022-12-31T10:03:16.675Z,96487.31
2022-12-31T10:05:36.836Z,96486.94
2022-12-31T10:07:52.816Z,96485.88
2022-12-31T10:10:00.990Z,96489.69
2022-12-31T10:12:28.371Z,96471.06
2022-12-31T10:14:47.391Z,96470.13
2022-12-31T10:17:03.360Z,96470.41
2022-12-31T10:19:47.332Z,96461.38
2022-12-31T10:21:54.878Z,96463.41
2022-12-31T10:24:21.338Z,96461.78
2022-12-31T10:26:38.115Z,96453.94
2022-12-31T10:28:47.830Z,96441.56
2022-12-31T10:30:54.962Z,96447.09
2022-12-31T10:33:08.331Z,96450.38
2022-12-31T10:35:21.135Z,96437.41
2022-12-31T10:37:24.374Z,96437.19
2022-12-31T10:39:34.470Z,96444.78
2022-12-31T10:41:58.524Z,96442.59
2022-12-31T10:44:33.034Z,96443.53
2022-12-31T10:46:48.912Z,96442.72
2022-12-31T10:49:22.395Z,96443.31
2022-12-31T10:51:40.384Z,96437.84
2022-12-31T10:54:30.360Z,96436.50
2022-12-31T10:56:54.641Z,96437.47
2022-12-31T10:59:24.114Z,96420.28
2022-12-31T11:01:33.871Z,96436.00
2022-12-31T11:04:00.052Z,96431.88
2022-12-31T11:06:41.839Z,96433.66
2022-12-31T11:09:19.219Z,96433.63
2022-12-31T11:11:28.527Z,96428.84
2022-12-31T11:13:57.394Z,96418.31
2022-12-31T11:16:09.619Z,96417.13
2022-12-31T11:18:19.065Z,96427.13
2022-12-31T11:20:32.981Z,96413.56
2022-12-31T11:22:49.153Z,96417.41
2022-12-31T11:25:04.495Z,96403.81
2022-12-31T11:27:18.981Z,96411.84
2022-12-31T11:29:25.576Z,96410.75
2022-12-31T11:31:43.302Z,96418.75
2022-12-31T11:33:59.271Z,96425.22
2022-12-31T11:36:10.385Z,96413.09
2022-12-31T11:38:23.933Z,96418.56
2022-12-31T11:40:48.515Z,96425.81
2022-12-31T11:42:56.503Z,96415.63
2022-12-31T11:45:00.872Z,96399.75
2022-12-31T11:47:14.174Z,96405.09
2022-12-31T11:49:40.667Z,96402.56
2022-12-31T11:52:03.968Z,96399.63
2022-12-31T11:54:36.150Z,96398.53
2022-12-31T11:56:38.584Z,96402.09
2022-12-31T11:58:36.960Z,96400.88
2022-12-31T12:00:36.223Z,96399.34
2022-12-31T12:02:37.579Z,96406.78
2022-12-31T12:04:36.077Z,96414.34
2022-12-31T12:06:34.486Z,96413.41
2022-12-31T12:08:34.924Z,96416.06
2022-12-31T12:10:39.668Z,96411.66
2022-12-31T12:12:41.337Z,96412.22
2022-12-31T12:14:41.928Z,96410.72
2022-12-31T12:16:40.277Z,96408.91
2022-12-31T12:18:43.618Z,96405.66
2022-12-31T12:20:45.298Z,96407.56
2022-12-31T12:22:51.492Z,96410.69
2022-12-31T12:24:55.285Z,96408.91
2022-12-31T12:26:55.353Z,96405.09
2022-12-31T12:28:53.943Z,96406.66
2022-12-31T12:33:18.192Z,96409.25
2022-12-31T12:35:18.472Z,96405.44
2022-12-31T12:37:32.400Z,96409.88
2022-12-31T12:39:32.624Z,96408.81
2022-12-31T12:41:31.179Z,96414.25
2022-12-31T12:43:32.378Z,96417.09
2022-12-31T12:45:40.568Z,96410.81
2022-12-31T12:47:39.025Z,96410.81
2022-12-31T12:49:40.892Z,96415.03
2022-12-31T12:51:55.806Z,96417.53
2022-12-31T12:54:02.812Z,96412.88
2022-12-31T12:56:13.332Z,96416.75
2022-12-31T12:58:27.850Z,96412.53
2022-12-31T13:00:32.023Z,96407.09
2022-12-31T13:03:08.330Z,96409.66
2022-12-31T13:05:27.661Z,96420.97
2022-12-31T13:07:42.219Z,96414.69
2022-12-31T13:09:54.131Z,96414.63
2022-12-31T13:12:07.721Z,96420.44
2022-12-31T13:14:18.733Z,96419.28
2022-12-31T13:16:25.547Z,96415.31
2022-12-31T13:18:38.565Z,96426.47
2022-12-31T13:20:42.549Z,96425.03
2022-12-31T13:22:45.975Z,96428.59
2022-12-31T13:24:52.964Z,96427.94
2022-12-31T13:26:58.636Z,96429.97
2022-12-31T13:28:58.116Z,96426.97
2022-12-31T13:31:06.530Z,96428.97
2022-12-31T13:33:15.856Z,96430.38
2022-12-31T13:35:26.618Z,96430.06
2022-12-31T13:37:53.690Z,96438.06
2022-12-31T13:39:57.843Z,96433.44
2022-12-31T13:42:02.333Z,96431.75
2022-12-31T13:44:10.378Z,96430.72
2022-12-31T13:46:19.798Z,96430.31
2022-12-31T13:48:26.116Z,96433.97
2022-12-31T13:50:29.666Z,96435.78
2022-12-31T13:52:35.794Z,96435.34
2022-12-31T13:54:42.658Z,96435.28
2022-12-31T13:56:43.823Z,96435.34
2022-12-31T13:58:47.084Z,96435.34
2022-12-31T14:00:49.068Z,96437.50
2022-12-31T14:02:55.060Z,96444.56
2022-12-31T14:05:00.454Z,96447.06
2022-12-31T14:07:04.383Z,96437.16
2022-12-31T14:09:03.013Z,96440.41
2022-12-31T14:11:08.022Z,96444.22
2022-12-31T14:13:20.857Z,96448.41
2022-12-31T14:15:24.955Z,96443.38
2022-12-31T14:17:32.976Z,96443.91
2022-12-31T14:19:46.391Z,96442.75
2022-12-31T14:21:50.223Z,96437.81
2022-12-31T14:23:54.375Z,96444.44
2022-12-31T14:25:57.072Z,96440.97
2022-12-31T14:27:57.587Z,96434.75
2022-12-31T14:30:00.189Z,96438.09
2022-12-31T14:32:20.312Z,96438.75
2022-12-31T14:34:27.007Z,96436.03
2022-12-31T14:36:40.647Z,96432.44
2022-12-31T14:38:52.571Z,96441.44
2022-12-31T14:41:03.955Z,96439.00
2022-12-31T14:43:13.304Z,96441.97
2022-12-31T14:45:29.028Z,96443.97
2022-12-31T14:47:38.697Z,96436.38
2022-12-31T14:49:47.858Z,96442.03
2022-12-31T14:51:46.308Z,96441.59
2022-12-31T14:53:56.829Z,96441.91
2022-12-31T14:55:59.933Z,96439.53
2022-12-31T14:58:27.329Z,96452.41
2022-12-31T15:00:30.581Z,96442.06
2022-12-31T15:02:31.004Z,96441.53
2022-12-31T15:04:42.955Z,96450.50
2022-12-31T15:06:59.575Z,96453.31
2022-12-31T15:09:08.565Z,96452.38
2022-12-31T15:11:19.321Z,96458.38
2022-12-31T15:13:29.130Z,96452.47
2022-12-31T15:15:50.165Z,96462.91
2022-12-31T15:18:02.832Z,96455.13
2022-12-31T15:20:20.331Z,96466.91
2022-12-31T15:22:36.104Z,96475.16
2022-12-31T15:24:35.925Z,96474.44
2022-12-31T15:26:50.998Z,96469.66
2022-12-31T15:28:58.387Z,96477.97
2022-12-31T15:31:02.548Z,96488.53
2022-12-31T15:33:04.521Z,96482.66
2022-12-31T15:35:05.017Z,96478.63
2022-12-31T15:37:06.572Z,96481.25
2022-12-31T15:39:25.897Z,96482.81
2022-12-31T15:41:37.593Z,96481.09
2022-12-31T15:43:45.143Z,96477.63
2022-12-31T15:45:44.285Z,96479.53
2022-12-31T15:47:47.112Z,96484.72
2022-12-31T15:49:47.993Z,96490.78
2022-12-31T15:51:49.580Z,96485.47
2022-12-31T15:53:53.202Z,96492.34
2022-12-31T15:55:54.947Z,96485.75
2022-12-31T15:57:57.885Z,96490.41
2022-12-31T15:59:59.501Z,96500.31
2022-12-31T16:01:58.511Z,96507.56
2022-12-31T16:03:59.079Z,96506.13
2022-12-31T16:06:02.029Z,96511.53
2022-12-31T16:08:01.213Z,96515.41
2022-12-31T16:10:03.845Z,96520.88
2022-12-31T16:12:03.745Z,96519.16
2022-12-31T16:14:04.786Z,96519.50
2022-12-31T16:16:19.911Z,96525.91
2022-12-31T16:18:22.741Z,96526.31
2022-12-31T16:20:23.819Z,96537.16
2022-12-31T16:22:27.238Z,96535.09
2022-12-31T16:24:29.110Z,96541.47
2022-12-31T16:26:33.503Z,96547.63
2022-12-31T16:28:33.177Z,96553.47
2022-12-31T16:30:35.862Z,96551.03
2022-12-31T16:32:36.486Z,96554.31
2022-12-31T16:34:38.519Z,96558.19
2022-12-31T16:36:36.808Z,96559.72
2022-12-31T16:38:35.922Z,96568.66
2022-12-31T16:40:34.339Z,96572.50
2022-12-31T16:42:32.630Z,96574.78
2022-12-31T16:44:31.972Z,96572.41
2022-12-31T16:46:33.380Z,96569.31
2022-12-31T16:48:31.688Z,96570.06
2022-12-31T16:50:30.673Z,96566.28
2022-12-31T16:52:33.222Z,96568.41
2022-12-31T16:54:35.579Z,96571.06
2022-12-31T16:56:37.663Z,96580.00
2022-12-31T16:58:38.433Z,96581.72
2022-12-31T17:00:37.837Z,96570.47
2022-12-31T17:02:41.819Z,96570.19
2022-12-31T17:04:47.000Z,96582.97
2022-12-31T17:06:50.964Z,96577.41
2022-12-31T17:09:03.603Z,96587.16
2022-12-31T17:11:04.695Z,96591.69
2022-12-31T17:15:27.041Z,96607.38
2022-12-31T17:17:28.708Z,96597.88
2022-12-31T17:19:38.880Z,96597.53
2022-12-31T17:21:37.157Z,96601.06
2022-12-31T17:23:37.825Z,96605.59
2022-12-31T17:25:38.233Z,96600.44
2022-12-31T17:27:37.632Z,96606.03
2022-12-31T17:29:36.591Z,96605.94
2022-12-31T17:31:36.973Z,96602.91
2022-12-31T17:33:35.356Z,96601.44
2022-12-31T17:35:36.809Z,96600.84
2022-12-31T17:37:35.770Z,96601.13
2022-12-31T17:39:48.236Z,96605.63
2022-12-31T17:41:47.679Z,96606.28
2022-12-31T17:43:46.203Z,96612.59
2022-12-31T17:45:47.315Z,96607.72
2022-12-31T17:47:51.025Z,96606.88
2022-12-31T17:49:49.297Z,96607.50
2022-12-31T17:51:49.202Z,96612.94
2022-12-31T17:53:47.557Z,96608.47
2022-12-31T17:55:48.281Z,96607.72
2022-12-31T17:57:51.866Z,96612.44
2022-12-31T17:59:50.163Z,96607.47
2022-12-31T18:01:49.420Z,96606.25
2022-12-31T18:03:48.987Z,96611.91
2022-12-31T18:05:47.472Z,96610.88
2022-12-31T18:07:47.225Z,96617.00
2022-12-31T18:09:45.422Z,96608.25
2022-12-31T18:11:43.801Z,96605.78
2022-12-31T18:13:41.995Z,96609.91
2022-12-31T18:15:41.491Z,96606.63
2022-12-31T18:17:39.767Z,96606.22
2022-12-31T18:20:03.616Z,96605.50
2022-12-31T18:22:00.422Z,96610.38
2022-12-31T18:25:58.223Z,96605.75
2022-12-31T18:27:56.369Z,96610.97
2022-12-31T18:29:59.106Z,96618.81
2022-12-31T18:32:02.455Z,96625.06
2022-12-31T18:34:00.817Z,96627.91
2022-12-31T18:36:14.494Z,96635.38
2022-12-31T18:38:14.788Z,96635.19
2022-12-31T18:40:15.292Z,96633.63
2022-12-31T18:42:14.898Z,96630.28
2022-12-31T18:44:14.945Z,96648.75
2022-12-31T18:46:14.268Z,96639.13
2022-12-31T18:48:13.407Z,96649.91
2022-12-31T18:50:15.139Z,96642.97
2022-12-31T18:52:14.570Z,96645.16
2022-12-31T18:54:17.869Z,96648.53
2022-12-31T18:56:19.605Z,96647.88
2022-12-31T18:58:17.810Z,96648.75
2022-12-31T19:00:16.696Z,96641.44
2022-12-31T19:02:19.330Z,96648.66
2022-12-31T19:04:26.504Z,96650.59
2022-12-31T19:06:26.226Z,96654.25
2022-12-31T19:08:24.897Z,96649.03
2022-12-31T19:10:23.404Z,96655.31
2022-12-31T19:12:23.195Z,96651.06
2022-12-31T19:14:24.777Z,96650.34
2022-12-31T19:16:22.998Z,96648.72
2022-12-31T19:18:21.355Z,96650.75
2022-12-31T19:20:26.463Z,96648.13
2022-12-31T19:22:24.925Z,96649.25
2022-12-31T19:24:26.750Z,96641.63
2022-12-31T19:26:25.020Z,96646.31
2022-12-31T19:28:26.989Z,96637.03
2022-12-31T19:30:27.565Z,96642.16
2022-12-31T19:32:25.740Z,96645.91
2022-12-31T19:34:23.921Z,96634.63
2022-12-31T19:36:22.337Z,96637.94
2022-12-31T19:38:23.146Z,96633.81
2022-12-31T19:40:23.956Z,96639.22
2022-12-31T19:42:22.237Z,96641.56
2022-12-31T19:44:21.993Z,96639.97
2022-12-31T19:46:20.631Z,96643.59
2022-12-31T19:48:25.798Z,96645.06
2022-12-31T19:50:29.447Z,96650.13
2022-12-31T19:52:27.713Z,96652.75
2022-12-31T19:54:25.983Z,96655.66
2022-12-31T19:56:24.148Z,96657.75
2022-12-31T19:58:25.682Z,96662.09
2022-12-31T20:00:25.418Z,96651.34
2022-12-31T20:02:23.794Z,96664.34
2022-12-31T20:04:22.564Z,96661.97
2022-12-31T20:06:20.931Z,96666.38
2022-12-31T20:08:20.426Z,96673.56
2022-12-31T20:10:18.737Z,96667.78
2022-12-31T20:12:17.318Z,96670.31
2022-12-31T20:14:15.652Z,96682.66
2022-12-31T20:16:17.140Z,96686.16
2022-12-31T20:18:21.028Z,96693.03
2022-12-31T20:20:19.205Z,96684.22
2022-12-31T20:22:17.600Z,96684.13
2022-12-31T20:24:15.950Z,96680.81
2022-12-31T20:26:14.232Z,96681.56
2022-12-31T20:28:12.631Z,96688.50
2022-12-31T20:30:12.767Z,96682.38
2022-12-31T20:32:12.264Z,96681.56
2022-12-31T20:34:11.615Z,96673.63
2022-12-31T20:36:11.957Z,96678.13
2022-12-31T20:38:10.725Z,96679.84
2022-12-31T20:40:10.714Z,96674.47
2022-12-31T20:42:08.907Z,96677.00
2022-12-31T20:44:07.248Z,96671.47
2022-12-31T20:46:14.423Z,96679.50
2022-12-31T20:48:14.732Z,96685.66
2022-12-31T20:50:13.104Z,96684.03
2022-12-31T20:52:11.415Z,96684.16
2022-12-31T20:54:11.714Z,96672.88
2022-12-31T20:56:10.494Z,96670.31
2022-12-31T20:58:08.658Z,96672.34
2022-12-31T21:00:12.328Z,96677.53
2022-12-31T21:02:29.563Z,96674.13
2022-12-31T21:04:35.094Z,96670.75
2022-12-31T21:06:34.252Z,96663.16
2022-12-31T21:08:35.031Z,96655.53
2022-12-31T21:10:34.688Z,96658.31
2022-12-31T21:12:43.886Z,96661.84
2022-12-31T21:14:44.868Z,96660.25
2022-12-31T21:16:43.307Z,96664.94
2022-12-31T21:18:41.515Z,96655.66
2022-12-31T21:20:41.064Z,96668.66
2022-12-31T21:22:39.536Z,96667.66
2022-12-31T21:24:39.243Z,96673.69
2022-12-31T21:26:37.909Z,96667.47
2022-12-31T21:28:36.158Z,96671.88
2022-12-31T21:30:34.773Z,96674.72
2022-12-31T21:32:32.906Z,96673.19
2022-12-31T21:34:31.156Z,96672.75
2022-12-31T21:36:30.634Z,96674.84
2022-12-31T21:38:29.885Z,96688.06
2022-12-31T21:40:28.210Z,96680.47
2022-12-31T21:42:26.400Z,96675.28
2022-12-31T21:44:26.103Z,96680.28
2022-12-31T21:46:24.507Z,96677.63
2022-12-31T21:48:22.123Z,96679.22
2022-12-31T21:50:20.506Z,96679.06
2022-12-31T21:52:30.802Z,96681.50
2022-12-31T21:54:46.276Z,96672.88
2022-12-31T21:56:44.479Z,96674.66
2022-12-31T21:58:44.309Z,96677.16
2022-12-31T22:01:00.043Z,96679.66
2022-12-31T22:03:16.163Z,96677.75
2022-12-31T22:05:21.412Z,96680.13
2022-12-31T22:07:24.578Z,96682.34
2022-12-31T22:09:22.907Z,96681.81
2022-12-31T22:11:22.670Z,96680.47
2022-12-31T22:13:20.933Z,96676.44
2022-12-31T22:15:19.209Z,96687.03
2022-12-31T22:17:17.513Z,96694.16
2022-12-31T22:19:15.756Z,96684.53
2022-12-31T22:21:19.385Z,96698.56
2022-12-31T22:23:19.691Z,96692.66
2022-12-31T22:25:17.997Z,96699.59
2022-12-31T22:27:28.816Z,96690.63
2022-12-31T22:29:28.069Z,96697.56
2022-12-31T22:31:29.032Z,96700.97
2022-12-31T22:33:27.393Z,96701.88
2022-12-31T22:35:25.897Z,96701.34
2022-12-31T22:39:45.076Z,96706.97
2022-12-31T22:41:43.605Z,96715.78
2022-12-31T22:43:44.070Z,96715.84
2022-12-31T22:45:42.175Z,96715.91
2022-12-31T22:47:40.398Z,96722.19
2022-12-31T22:49:38.552Z,96713.66
2022-12-31T22:51:56.859Z,96710.28
2022-12-31T22:53:55.049Z,96700.69
2022-12-31T22:55:56.508Z,96699.91
2022-12-31T22:57:54.866Z,96698.16
2022-12-31T22:59:53.093Z,96703.28
2022-12-31T23:01:51.452Z,96700.53
2022-12-31T23:03:51.481Z,96710.72
2022-12-31T23:05:51.492Z,96709.97
2022-12-31T23:07:49.933Z,96717.09
2022-12-31T23:10:05.312Z,96710.22
2022-12-31T23:12:07.084Z,96712.88
2022-12-31T23:14:23.344Z,96704.94
2022-12-31T23:16:38.921Z,96708.53
2022-12-31T23:18:54.339Z,96708.78
2022-12-31T23:21:10.053Z,96715.97
2022-12-31T23:23:10.053Z,96704.81
2022-12-31T23:25:09.047Z,96701.47
2022-12-31T23:27:09.673Z,96698.09
2022-12-31T23:29:07.999Z,96692.06
2022-12-31T23:31:07.360Z,96693.69
2022-12-31T23:33:05.807Z,96689.38
2022-12-31T23:35:09.558Z,96684.91
2022-12-31T23:37:08.322Z,96675.41
2022-12-31T23:39:06.679Z,96675.59
2022-12-31T23:41:13.136Z,96688.53
2022-12-31T23:43:20.907Z,96680.94
2022-12-31T23:45:19.100Z,96680.09
2022-12-31T23:47:17.345Z,96679.94
2022-12-31T23:49:15.586Z,96687.34
2022-12-31T23:51:13.709Z,96689.09
2022-12-31T23:53:11.948Z,96695.97
2022-12-31T23:55:10.518Z,96693.41
2022-12-31T23:57:08.774Z,96711.63
2022-12-31T23:59:08.526Z,96713.50
